Time;durP1;ratioP1;P1;durP2;ratioP2;P2;SDS_P1;SDS_P2;PMS_P1;PMS_P2;Temp;Humidity;BMP_temperature;BMP_pressure;BME280_temperature;BME280_humidity;BME280_pressure;Samples;Min_cycle;Max_cycle;Signal;HPM_P1;HPM_P2
2022/08/21 00:00:27;;;;;;;5.22;3.92;;;25.00;91.40;;;;;;5048577;28;20865;-74
2022/08/21 00:03:01;;;;;;;4.35;3.60;;;25.00;91.30;;;;;;5026012;28;20184;-74
2022/08/21 00:05:35;;;;;;;7.15;3.60;;;24.90;91.10;;;;;;5039474;28;20189;-75
2022/08/21 00:08:03;;;;;;;6.88;3.78;;;24.90;91.00;;;;;;5041562;28;20187;-74
2022/08/21 00:10:30;;;;;;;5.53;3.60;;;24.80;90.90;;;;;;5021858;28;20547;-74
2022/08/21 00:12:57;;;;;;;8.70;3.65;;;24.80;90.80;;;;;;5028876;28;20198;-74
2022/08/21 00:15:28;;;;;;;5.38;3.40;;;24.70;90.90;;;;;;5031902;28;20219;-74
2022/08/21 00:17:56;;;;;;;4.25;3.60;;;24.70;91.00;;;;;;5032522;28;20188;-74
2022/08/21 00:20:23;;;;;;;4.75;3.33;;;24.70;91.10;;;;;;5026728;28;20271;-75
2022/08/21 00:22:51;;;;;;;7.68;3.75;;;24.70;91.10;;;;;;5060768;28;20243;-75
2022/08/21 00:25:19;;;;;;;3.63;3.28;;;24.70;91.20;;;;;;5034999;28;20584;-75
2022/08/21 00:27:49;;;;;;;5.20;3.42;;;24.70;91.10;;;;;;5028014;28;20203;-75
2022/08/21 00:30:19;;;;;;;7.53;3.88;;;24.70;91.10;;;;;;5022061;28;20192;-75
2022/08/21 00:32:46;;;;;;;5.53;3.60;;;24.60;91.10;;;;;;5029945;28;20195;-75
2022/08/21 00:35:17;;;;;;;6.72;3.70;;;24.70;91.20;;;;;;5026382;28;20241;-75
2022/08/21 00:37:43;;;;;;;5.53;3.67;;;24.60;90.50;;;;;;5027035;28;20195;-75
2022/08/21 00:40:16;;;;;;;7.22;3.50;;;24.60;90.80;;;;;;5006970;28;20189;-74
2022/08/21 00:42:43;;;;;;;3.50;3.20;;;24.60;91.20;;;;;;5033944;28;20192;-74
2022/08/21 00:45:12;;;;;;;4.18;3.63;;;24.70;91.30;;;;;;5022597;28;20203;-74
2022/08/21 00:47:39;;;;;;;5.38;3.60;;;24.70;91.20;;;;;;5018722;28;20216;-74
2022/08/21 00:50:10;;;;;;;6.65;3.78;;;24.70;90.70;;;;;;5026142;28;20272;-74
2022/08/21 00:52:39;;;;;;;4.20;3.22;;;24.70;90.10;;;;;;5018783;28;20246;-74
2022/08/21 00:55:11;;;;;;;5.72;3.30;;;24.70;90.10;;;;;;5007955;28;20192;-74
2022/08/21 00:57:56;;;;;;;5.10;3.45;;;24.70;90.50;;;;;;5009627;28;20184;-74
2022/08/21 01:00:38;;;;;;;5.22;3.40;;;24.70;90.10;;;;;;5023204;28;20203;-74
2022/08/21 01:03:13;;;;;;;4.32;3.25;;;24.70;90.40;;;;;;5010856;28;20203;-75
2022/08/21 01:05:41;;;;;;;8.80;3.63;;;24.70;90.20;;;;;;5023020;28;20279;-75
2022/08/21 01:08:09;;;;;;;7.75;3.17;;;24.60;89.90;;;;;;5035623;28;20192;-75
2022/08/21 01:10:37;;;;;;;6.60;3.38;;;24.60;89.80;;;;;;5024027;28;20188;-74
2022/08/21 01:13:07;;;;;;;4.25;3.40;;;24.60;89.90;;;;;;5023959;28;20246;-75
2022/08/21 01:15:42;;;;;;;4.93;3.03;;;24.50;89.30;;;;;;5027811;28;20200;-75
2022/08/21 01:18:11;;;;;;;5.40;3.60;;;24.50;89.50;;;;;;5036778;28;20215;-75
2022/08/21 01:20:41;;;;;;;5.85;3.35;;;24.50;89.80;;;;;;5019134;28;20188;-75
2022/08/21 01:23:07;;;;;;;3.67;3.17;;;24.50;90.20;;;;;;5029072;28;20838;-75
2022/08/21 01:25:35;;;;;;;3.72;3.20;;;24.40;90.20;;;;;;5024921;28;20604;-75
2022/08/21 01:28:11;;;;;;;5.63;3.10;;;24.40;90.10;;;;;;5025731;28;20188;-75
2022/08/21 01:30:40;;;;;;;5.25;3.30;;;24.30;90.10;;;;;;5020636;28;20179;-75
2022/08/21 01:33:06;;;;;;;4.50;3.38;;;24.30;90.50;;;;;;5043044;28;20179;-75
2022/08/21 01:35:33;;;;;;;4.10;3.40;;;24.30;90.40;;;;;;5023252;28;20192;-75
2022/08/21 01:37:59;;;;;;;6.18;3.45;;;24.30;90.20;;;;;;5029855;28;20196;-75
2022/08/21 01:40:26;;;;;;;7.57;3.30;;;24.30;90.40;;;;;;4994455;28;20177;-75
2022/08/21 01:42:53;;;;;;;5.63;3.60;;;24.20;90.40;;;;;;5002015;28;20188;-75
2022/08/21 01:45:20;;;;;;;4.18;3.25;;;24.20;90.60;;;;;;5011813;28;20192;-75
2022/08/21 01:47:47;;;;;;;3.35;2.97;;;24.10;90.60;;;;;;5005787;28;20200;-75
2022/08/21 01:50:17;;;;;;;4.72;3.33;;;24.10;90.40;;;;;;5030559;28;20180;-75
2022/08/21 01:52:44;;;;;;;7.15;3.28;;;24.10;90.90;;;;;;5028935;28;20184;-75
2022/08/21 01:55:16;;;;;;;5.75;3.72;;;24.10;90.90;;;;;;5027326;28;20295;-75
2022/08/21 01:57:43;;;;;;;7.50;3.50;;;24.20;91.00;;;;;;5020725;28;20192;-75
2022/08/21 02:00:14;;;;;;;5.53;4.00;;;24.20;90.90;;;;;;5028588;28;20223;-75
2022/08/21 02:02:41;;;;;;;6.72;3.63;;;24.20;90.90;;;;;;5011815;28;20673;-75
2022/08/21 02:05:10;;;;;;;4.57;3.40;;;24.20;91.00;;;;;;5026750;28;20224;-75
2022/08/21 02:07:51;;;;;;;3.80;3.40;;;24.10;91.10;;;;;;5019520;28;20347;-75
2022/08/21 02:10:27;;;;;;;4.63;3.55;;;24.10;91.00;;;;;;5028775;28;20232;-75
2022/08/21 02:12:55;;;;;;;10.02;3.47;;;24.10;91.00;;;;;;5030319;28;20208;-75
2022/08/21 02:15:22;;;;;;;6.30;3.28;;;24.10;91.10;;;;;;4998390;28;20189;-75
2022/08/21 02:17:57;;;;;;;6.72;3.90;;;24.10;91.10;;;;;;5022291;28;20654;-75
2022/08/21 02:20:47;;;;;;;5.68;3.30;;;24.10;90.80;;;;;;5027107;28;20681;-75
2022/08/21 02:23:15;;;;;;;6.55;3.35;;;24.00;90.70;;;;;;5019960;28;20574;-75
2022/08/21 02:25:42;;;;;;;3.60;3.30;;;24.00;90.90;;;;;;5007695;28;20185;-75
2022/08/21 02:28:13;;;;;;;6.03;3.50;;;24.10;91.00;;;;;;5023506;28;20188;-75
2022/08/21 02:30:46;;;;;;;6.47;3.55;;;24.10;91.30;;;;;;5041196;28;20191;-75
2022/08/21 02:33:14;;;;;;;4.78;3.55;;;24.10;91.00;;;;;;5027605;28;20187;-75
2022/08/21 02:35:42;;;;;;;5.82;3.90;;;24.00;91.00;;;;;;5027149;28;20203;-75
2022/08/21 02:38:14;;;;;;;7.65;3.80;;;24.00;91.10;;;;;;5020271;28;20189;-75
2022/08/21 02:40:45;;;;;;;5.45;3.70;;;23.90;91.10;;;;;;5039871;28;20188;-75
2022/08/21 02:43:11;;;;;;;4.72;3.53;;;23.90;91.30;;;;;;5028737;28;20179;-75
2022/08/21 02:45:39;;;;;;;4.03;3.45;;;24.00;91.30;;;;;;5016960;28;20265;-75
2022/08/21 02:48:12;;;;;;;4.85;3.50;;;23.90;91.60;;;;;;5027961;28;20187;-75
2022/08/21 02:50:47;;;;;;;4.90;3.33;;;23.90;91.20;;;;;;5034435;28;20822;-75
2022/08/21 02:53:16;;;;;;;7.25;3.45;;;23.90;91.30;;;;;;5026501;28;20597;-75
2022/08/21 02:55:49;;;;;;;4.93;3.75;;;23.90;91.20;;;;;;5029206;28;20334;-75
2022/08/21 02:58:25;;;;;;;6.05;3.92;;;23.90;91.30;;;;;;5011785;28;20176;-75
2022/08/21 03:00:51;;;;;;;4.07;3.55;;;23.80;91.30;;;;;;5027606;28;20188;-75
2022/08/21 03:03:18;;;;;;;5.53;3.70;;;23.80;91.40;;;;;;5036703;28;20614;-75
2022/08/21 03:05:44;;;;;;;4.78;4.00;;;23.80;91.50;;;;;;5026470;28;20755;-75
2022/08/21 03:08:14;;;;;;;5.38;3.83;;;23.80;91.40;;;;;;5017038;28;20253;-75
2022/08/21 03:10:49;;;;;;;5.00;3.67;;;23.80;91.70;;;;;;5028189;28;20180;-75
2022/08/21 03:13:16;;;;;;;6.22;3.63;;;23.90;91.60;;;;;;5025632;28;20184;-75
2022/08/21 03:15:44;;;;;;;4.68;3.70;;;23.80;91.60;;;;;;5018128;28;20185;-75
2022/08/21 03:18:12;;;;;;;7.75;3.55;;;23.80;91.60;;;;;;5008458;28;20206;-75
2022/08/21 03:20:41;;;;;;;5.13;3.92;;;23.80;91.60;;;;;;5029331;28;20187;-75
2022/08/21 03:23:08;;;;;;;9.18;4.22;;;23.80;91.70;;;;;;5011762;28;20207;-75
2022/08/21 03:25:35;;;;;;;5.78;3.90;;;23.70;91.50;;;;;;5026534;28;20259;-75
2022/08/21 03:28:09;;;;;;;3.78;3.47;;;23.70;91.70;;;;;;5037578;28;20235;-75
2022/08/21 03:30:36;;;;;;;4.03;3.63;;;23.70;91.70;;;;;;5026237;28;20199;-75
2022/08/21 03:33:03;;;;;;;6.15;3.40;;;23.70;91.80;;;;;;5028268;28;20189;-75
2022/08/21 03:35:29;;;;;;;6.28;3.33;;;23.60;91.80;;;;;;5028002;28;20276;-75
2022/08/21 03:37:59;;;;;;;5.38;3.45;;;23.60;92.00;;;;;;5030787;28;20188;-75
2022/08/21 03:40:25;;;;;;;6.78;3.67;;;23.60;92.20;;;;;;5034772;28;20233;-75
2022/08/21 03:42:52;;;;;;;4.80;3.42;;;23.60;92.20;;;;;;5051702;28;20175;-75
2022/08/21 03:45:20;;;;;;;6.00;3.92;;;23.60;92.20;;;;;;5010610;28;20182;-74
2022/08/21 03:47:59;;;;;;;5.15;3.50;;;23.60;92.30;;;;;;5032974;28;20261;-75
2022/08/21 03:50:30;;;;;;;6.70;3.38;;;23.50;92.40;;;;;;5029915;28;20197;-74
2022/08/21 03:52:58;;;;;;;4.40;4.00;;;23.60;92.60;;;;;;5036015;28;20194;-75
2022/08/21 03:55:26;;;;;;;5.18;3.63;;;23.50;92.70;;;;;;5044214;28;20191;-75
2022/08/21 03:57:53;;;;;;;6.10;3.70;;;23.50;92.80;;;;;;5050562;28;20206;-75
2022/08/21 04:00:22;;;;;;;5.53;3.97;;;23.50;93.00;;;;;;5019764;28;20180;-75
2022/08/21 04:02:48;;;;;;;6.32;3.85;;;23.50;93.10;;;;;;5032702;28;20665;-75
2022/08/21 04:05:26;;;;;;;6.40;3.90;;;23.50;93.30;;;;;;5013785;28;20195;-75
2022/08/21 04:08:05;;;;;;;8.23;3.85;;;23.50;93.50;;;;;;5030386;28;20251;-73
2022/08/21 04:10:35;;;;;;;8.43;3.67;;;23.50;93.70;;;;;;5047283;28;20691;-75
2022/08/21 04:13:02;;;;;;;8.02;4.10;;;23.50;93.70;;;;;;5022768;28;20271;-75
2022/08/21 04:15:28;;;;;;;7.40;4.10;;;23.50;93.80;;;;;;5028299;28;20673;-75
2022/08/21 04:17:55;;;;;;;6.97;4.20;;;23.50;93.90;;;;;;4994904;28;20184;-75
2022/08/21 04:20:23;;;;;;;5.85;4.20;;;23.50;93.90;;;;;;5028799;28;20203;-75
2022/08/21 04:22:51;;;;;;;8.02;4.20;;;23.50;94.10;;;;;;5000610;28;20638;-75
2022/08/21 04:25:20;;;;;;;5.60;4.30;;;23.60;94.30;;;;;;5011707;28;20283;-75
2022/08/21 04:27:47;;;;;;;5.15;3.83;;;23.50;94.30;;;;;;5019528;28;20636;-75
2022/08/21 04:30:15;;;;;;;6.10;4.20;;;23.50;94.50;;;;;;5013935;28;20654;-75
2022/08/21 04:32:50;;;;;;;6.68;4.07;;;23.60;94.80;;;;;;5012509;28;20546;-75
2022/08/21 04:35:22;;;;;;;5.80;3.97;;;23.60;95.10;;;;;;5043399;28;20177;-75
2022/08/21 04:37:50;;;;;;;6.07;4.30;;;23.50;95.30;;;;;;5010733;28;20666;-75
2022/08/21 04:40:21;;;;;;;6.00;4.45;;;23.50;95.70;;;;;;5027154;28;20200;-75
2022/08/21 04:43:00;;;;;;;5.82;4.47;;;23.50;96.00;;;;;;5063798;28;20197;-75
2022/08/21 04:45:41;;;;;;;9.80;4.45;;;23.50;96.30;;;;;;5031291;28;20278;-75
2022/08/21 04:48:12;;;;;;;6.60;4.33;;;23.50;96.50;;;;;;5025546;28;20231;-75
2022/08/21 04:51:01;;;;;;;5.57;4.38;;;23.60;96.80;;;;;;5005476;28;20184;-75
2022/08/21 04:53:40;;;;;;;5.28;4.18;;;23.70;97.10;;;;;;5028423;28;20191;-75
2022/08/21 04:56:17;;;;;;;5.95;4.20;;;23.80;97.80;;;;;;5027020;28;20273;-75
2022/08/21 04:58:44;;;;;;;8.45;4.65;;;23.90;98.10;;;;;;5029110;28;20192;-75
2022/08/21 05:01:23;;;;;;;8.10;4.70;;;23.90;98.40;;;;;;5005396;28;20181;-75
2022/08/21 05:03:56;;;;;;;7.05;4.85;;;24.00;99.20;;;;;;5010726;28;20570;-75
2022/08/21 05:06:24;;;;;;;6.60;4.50;;;24.10;99.40;;;;;;5056872;28;20315;-75
2022/08/21 05:08:55;;;;;;;7.38;4.75;;;24.10;99.50;;;;;;5048645;28;20286;-75
2022/08/21 05:11:22;;;;;;;7.13;4.60;;;24.20;99.70;;;;;;5041016;28;20212;-75
2022/08/21 05:13:49;;;;;;;6.65;5.13;;;24.20;99.60;;;;;;5024325;28;20338;-75
2022/08/21 05:16:16;;;;;;;10.25;5.15;;;24.30;99.90;;;;;;5045241;28;20669;-75
2022/08/21 05:18:43;;;;;;;8.57;4.60;;;24.30;99.90;;;;;;5028719;28;20247;-75
2022/08/21 05:21:10;;;;;;;7.10;5.13;;;24.40;99.90;;;;;;5034478;28;20184;-75
2022/08/21 05:23:37;;;;;;;5.22;4.57;;;24.40;99.00;;;;;;5029237;28;20203;-75
2022/08/21 05:26:04;;;;;;;5.65;4.30;;;24.50;98.30;;;;;;5030082;28;20234;-75
2022/08/21 05:28:31;;;;;;;9.38;4.82;;;24.50;98.10;;;;;;5031718;28;20176;-75
2022/08/21 05:30:58;;;;;;;4.95;4.28;;;24.60;97.60;;;;;;5026621;28;20212;-75
2022/08/21 05:33:25;;;;;;;6.75;4.28;;;24.60;98.40;;;;;;5029133;28;20660;-75
2022/08/21 05:35:55;;;;;;;5.28;4.28;;;24.60;98.20;;;;;;5028571;28;20707;-75
2022/08/21 05:38:27;;;;;;;5.97;4.47;;;24.70;97.90;;;;;;5028710;28;20708;-75
2022/08/21 05:40:53;;;;;;;4.78;4.35;;;24.70;98.00;;;;;;5029243;28;20279;-75
2022/08/21 05:43:20;;;;;;;11.15;4.80;;;24.80;98.00;;;;;;5043853;28;20533;-75
2022/08/21 05:45:48;;;;;;;7.72;4.32;;;24.90;97.60;;;;;;5028616;28;20185;-75
2022/08/21 05:48:19;;;;;;;7.35;4.80;;;24.90;97.90;;;;;;5014353;28;20200;-75
2022/08/21 05:50:49;;;;;;;5.43;4.10;;;24.90;98.10;;;;;;5002475;28;20526;-75
2022/08/21 05:53:18;;;;;;;5.28;4.30;;;25.00;97.00;;;;;;5034295;28;20571;-74
2022/08/21 05:55:46;;;;;;;4.65;4.05;;;25.00;96.40;;;;;;5028793;28;20183;-75
2022/08/21 05:58:15;;;;;;;6.75;4.30;;;25.10;95.70;;;;;;5032867;28;20255;-75
2022/08/21 06:00:43;;;;;;;12.13;4.18;;;25.10;95.90;;;;;;5029903;28;20283;-75
2022/08/21 06:03:27;;;;;;;4.85;4.35;;;25.20;96.30;;;;;;5028057;28;20194;-75
2022/08/21 06:05:55;;;;;;;6.60;4.65;;;25.30;96.40;;;;;;5033301;28;20833;-75
2022/08/21 06:08:23;;;;;;;5.28;4.30;;;25.30;96.30;;;;;;5029537;28;20204;-75
2022/08/21 06:11:03;;;;;;;11.18;4.63;;;25.50;96.60;;;;;;5025214;28;20181;-75
2022/08/21 06:13:30;;;;;;;8.05;4.15;;;25.50;96.40;;;;;;5028058;28;20222;-75
2022/08/21 06:16:12;;;;;;;6.82;4.80;;;25.60;96.70;;;;;;5022629;28;20195;-75
2022/08/21 06:18:40;;;;;;;7.20;4.75;;;25.70;96.90;;;;;;5009775;28;20242;-75
2022/08/21 06:21:07;;;;;;;5.30;4.22;;;25.80;97.10;;;;;;4996792;28;20179;-74
2022/08/21 06:23:35;;;;;;;6.25;4.50;;;25.90;97.10;;;;;;5026945;28;20184;-73
2022/08/21 06:26:04;;;;;;;9.63;4.95;;;25.90;97.40;;;;;;5023182;28;20213;-73
2022/08/21 06:28:32;;;;;;;9.15;5.07;;;26.00;98.30;;;;;;5048593;28;20186;-74
2022/08/21 06:30:59;;;;;;;10.25;4.63;;;26.10;98.70;;;;;;5016497;28;20182;-74
2022/08/21 06:33:25;;;;;;;7.82;5.00;;;26.10;98.40;;;;;;5018766;28;20674;-74
2022/08/21 06:35:52;;;;;;;6.78;4.90;;;26.20;98.30;;;;;;4991312;28;20185;-73
2022/08/21 06:38:19;;;;;;;8.95;5.13;;;26.30;98.20;;;;;;5026204;28;20184;-74
2022/08/21 06:40:46;;;;;;;7.55;4.82;;;26.40;98.10;;;;;;5029842;28;20176;-74
2022/08/21 06:43:16;;;;;;;6.10;4.57;;;26.40;97.80;;;;;;5029277;28;20634;-73
2022/08/21 06:45:43;;;;;;;10.95;4.90;;;26.50;98.20;;;;;;5025888;28;20200;-74
2022/08/21 06:48:10;;;;;;;5.50;4.50;;;26.60;98.30;;;;;;5026751;28;20225;-73
2022/08/21 06:50:37;;;;;;;6.70;5.15;;;26.70;98.80;;;;;;5008239;28;20184;-73
2022/08/21 06:53:16;;;;;;;8.45;5.32;;;26.80;99.20;;;;;;5012931;28;20184;-74
2022/08/21 06:55:42;;;;;;;9.32;5.50;;;26.90;99.50;;;;;;5024135;28;20180;-74
2022/08/21 06:58:11;;;;;;;12.10;5.22;;;26.90;99.20;;;;;;5032770;28;20227;-74
2022/08/21 07:00:45;;;;;;;8.18;4.65;;;27.00;99.00;;;;;;5025426;28;20188;-74
2022/08/21 07:03:27;;;;;;;6.47;4.63;;;27.10;97.70;;;;;;5027257;28;20234;-74
2022/08/21 07:05:54;;;;;;;8.35;4.80;;;27.30;97.20;;;;;;5016401;28;20189;-74
2022/08/21 07:08:21;;;;;;;12.75;4.85;;;27.30;97.40;;;;;;5019171;28;20196;-74
2022/08/21 07:10:49;;;;;;;9.95;5.20;;;27.40;97.80;;;;;;5047011;28;20176;-74
2022/08/21 07:13:19;;;;;;;7.55;4.22;;;27.40;97.80;;;;;;5010415;28;20176;-74
2022/08/21 07:15:45;;;;;;;8.57;4.55;;;27.50;97.60;;;;;;5013960;28;20180;-73
2022/08/21 07:18:13;;;;;;;9.52;5.25;;;27.60;97.10;;;;;;5034947;28;20364;-73
2022/08/21 07:20:40;;;;;;;6.43;4.63;;;27.80;97.70;;;;;;5038934;28;20196;-73
2022/08/21 07:23:16;;;;;;;6.60;5.03;;;27.90;97.40;;;;;;5030860;28;20284;-73
2022/08/21 07:25:42;;;;;;;8.88;4.60;;;27.90;97.10;;;;;;5028919;28;20629;-73
2022/08/21 07:28:08;;;;;;;6.78;5.10;;;28.00;97.00;;;;;;5029907;28;20192;-73
2022/08/21 07:30:42;;;;;;;10.63;5.32;;;28.10;96.70;;;;;;5026811;28;20657;-73
2022/08/21 07:33:09;;;;;;;9.68;4.80;;;28.20;96.60;;;;;;5037283;28;20274;-74
2022/08/21 07:35:42;;;;;;;10.02;4.90;;;28.30;96.80;;;;;;5050698;28;20633;-74
2022/08/21 07:38:08;;;;;;;8.02;5.10;;;28.40;96.80;;;;;;5034663;28;20304;-73
2022/08/21 07:40:36;;;;;;;13.70;5.75;;;28.50;97.20;;;;;;5065585;28;20213;-74
2022/08/21 07:43:02;;;;;;;10.90;5.93;;;28.60;99.90;;;;;;5021410;28;20189;-74
2022/08/21 07:45:29;;;;;;;13.00;5.97;;;28.70;99.90;;;;;;5029139;28;20719;-74
2022/08/21 07:47:55;;;;;;;13.73;6.18;;;28.70;99.90;;;;;;5030084;28;20342;-73
2022/08/21 07:50:23;;;;;;;6.93;5.40;;;28.80;99.70;;;;;;5021341;28;20192;-74
2022/08/21 07:52:51;;;;;;;8.02;5.93;;;28.90;99.90;;;;;;5012319;28;20219;-74
2022/08/21 07:55:23;;;;;;;9.10;5.90;;;28.90;99.90;;;;;;5030908;28;20196;-73
2022/08/21 07:57:50;;;;;;;14.95;6.38;;;29.00;99.90;;;;;;5034146;28;20200;-74
2022/08/21 08:00:23;;;;;;;11.43;6.15;;;29.10;99.90;;;;;;5028156;28;20188;-74
2022/08/21 08:02:53;;;;;;;8.02;5.45;;;29.20;99.90;;;;;;5032821;28;20199;-74
2022/08/21 08:05:25;;;;;;;12.30;5.82;;;29.20;99.90;;;;;;5033557;28;20189;-73
2022/08/21 08:07:52;;;;;;;11.50;6.00;;;29.30;99.90;;;;;;5027412;28;20216;-74
2022/08/21 08:10:20;;;;;;;9.63;6.32;;;29.40;99.90;;;;;;5011886;28;20183;-74
2022/08/21 08:12:47;;;;;;;11.48;6.10;;;29.40;99.90;;;;;;5020862;28;20188;-74
2022/08/21 08:15:21;;;;;;;13.35;7.50;;;29.50;99.90;;;;;;5019682;28;20308;-74
2022/08/21 08:17:48;;;;;;;10.00;6.65;;;29.60;99.90;;;;;;5031166;28;20192;-74
2022/08/21 08:20:18;;;;;;;16.15;6.45;;;29.80;99.90;;;;;;5038306;28;20649;-74
2022/08/21 08:22:45;;;;;;;13.60;6.50;;;29.80;99.90;;;;;;5028393;28;20200;-74
2022/08/21 08:25:15;;;;;;;17.15;6.57;;;29.90;99.90;;;;;;5011077;28;20192;-74
2022/08/21 08:27:41;;;;;;;10.52;6.60;;;29.90;99.90;;;;;;5033674;28;20204;-74
2022/08/21 08:30:13;;;;;;;14.80;7.22;;;30.00;99.90;;;;;;5009620;28;20199;-74
2022/08/21 08:32:41;;;;;;;10.57;6.60;;;30.10;99.90;;;;;;5027670;28;20184;-73
2022/08/21 08:35:09;;;;;;;7.75;6.57;;;30.20;99.90;;;;;;5015447;28;20247;-75
2022/08/21 08:37:40;;;;;;;14.48;6.88;;;30.20;99.90;;;;;;5006358;28;20196;-74
2022/08/21 08:40:17;;;;;;;13.75;7.22;;;30.20;99.90;;;;;;5031877;28;20196;-74
2022/08/21 08:42:47;;;;;;;12.02;6.85;;;30.30;99.90;;;;;;5056830;28;20258;-74
2022/08/21 08:45:20;;;;;;;10.90;7.03;;;30.30;99.90;;;;;;5056950;28;20633;-74
2022/08/21 08:47:57;;;;;;;10.95;7.10;;;30.40;99.90;;;;;;5021605;28;20255;-74
2022/08/21 08:50:54;;;;;;;10.98;7.05;;;30.40;99.90;;;;;;4999536;28;20207;-74
2022/08/21 08:53:33;;;;;;;15.70;7.32;;;30.40;99.90;;;;;;5019171;28;20263;-74
2022/08/21 08:56:03;;;;;;;10.23;7.18;;;30.40;99.90;;;;;;5050538;28;20187;-74
2022/08/21 08:58:40;;;;;;;10.90;6.95;;;30.50;99.90;;;;;;5022743;28;20188;-74
2022/08/21 09:01:17;;;;;;;12.65;7.53;;;30.70;99.90;;;;;;5019918;28;20196;-74
2022/08/21 09:03:49;;;;;;;10.43;6.97;;;30.90;99.90;;;;;;5019858;28;20191;-74
2022/08/21 09:06:24;;;;;;;12.15;7.00;;;31.00;99.90;;;;;;5026721;28;20216;-74
2022/08/21 09:09:11;;;;;;;13.55;7.35;;;31.00;99.90;;;;;;5029328;28;20183;-74
2022/08/21 09:11:55;;;;;;;11.73;7.25;;;31.10;99.90;;;;;;5029777;28;20183;-74
2022/08/21 09:14:32;;;;;;;14.27;7.00;;;31.20;99.90;;;;;;5039938;28;20222;-75
2022/08/21 09:17:31;;;;;;;11.93;7.20;;;31.30;99.90;;;;;;5049506;28;20266;-75
2022/08/21 09:20:13;;;;;;;9.75;7.20;;;31.30;99.90;;;;;;5040121;28;20194;-75
2022/08/21 09:23:22;;;;;;;15.27;7.03;;;31.40;99.90;;;;;;5049238;28;20187;-75
2022/08/21 09:26:11;;;;;;;12.52;6.95;;;31.60;99.90;;;;;;5045515;28;20195;-75
2022/08/21 09:28:40;;;;;;;13.77;7.40;;;31.70;99.90;;;;;;5032843;28;20179;-75
2022/08/21 09:31:21;;;;;;;10.70;7.40;;;31.70;99.90;;;;;;5019777;28;20673;-75
2022/08/21 09:33:47;;;;;;;10.25;6.88;;;31.90;99.90;;;;;;5032097;28;20278;-76
2022/08/21 09:36:37;;;;;;;13.80;7.03;;;31.90;99.90;;;;;;5026264;28;20264;-75
2022/08/21 09:39:05;;;;;;;15.43;7.22;;;31.90;99.90;;;;;;5029322;28;20302;-75
2022/08/21 09:41:37;;;;;;;10.60;6.95;;;32.10;99.90;;;;;;5030607;28;20216;-75
2022/08/21 09:44:08;;;;;;;14.10;7.53;;;32.30;99.90;;;;;;5028304;28;20246;-75
2022/08/21 09:46:36;;;;;;;18.80;7.07;;;32.30;99.90;;;;;;5031503;28;20206;-75
2022/08/21 09:49:04;;;;;;;15.05;7.68;;;32.40;99.90;;;;;;5044160;28;20183;-75
2022/08/21 09:51:35;;;;;;;11.95;8.00;;;32.60;99.90;;;;;;5048596;28;20175;-75
2022/08/21 09:54:08;;;;;;;19.05;8.07;;;32.70;99.90;;;;;;5014312;28;20187;-75
2022/08/21 09:59:46;;;;;;;15.27;7.45;;;32.70;99.90;;;;;;5041554;28;20250;-75
2022/08/21 10:02:22;;;;;;;13.23;7.90;;;32.90;99.90;;;;;;5028863;28;20278;-75
2022/08/21 10:05:01;;;;;;;14.07;7.80;;;32.90;99.90;;;;;;5028320;28;20279;-75
2022/08/21 10:07:32;;;;;;;15.00;7.90;;;33.00;99.90;;;;;;5061644;28;20214;-76
2022/08/21 10:10:09;;;;;;;10.80;7.20;;;33.00;99.90;;;;;;5044951;28;20210;-75
2022/08/21 10:13:15;;;;;;;12.30;7.72;;;33.10;99.90;;;;;;5048573;28;20183;-75
2022/08/21 10:16:21;;;;;;;14.55;8.20;;;33.10;99.90;;;;;;5046631;28;20191;-76
2022/08/21 10:19:30;;;;;;;13.27;7.60;;;33.20;99.90;;;;;;5011329;28;20676;-75
2022/08/21 10:22:50;;;;;;;13.60;8.23;;;33.20;99.90;;;;;;5032353;28;20196;-75
2022/08/21 10:26:08;;;;;;;19.65;7.95;;;32.90;99.90;;;;;;5008282;28;20193;-75
2022/08/21 10:29:38;;;;;;;14.05;8.00;;;33.00;99.90;;;;;;4951754;28;20870;-75
2022/08/21 10:32:38;;;;;;;11.27;7.47;;;33.10;99.90;;;;;;5046597;28;20218;-75
2022/08/21 10:35:30;;;;;;;13.27;8.02;;;33.10;99.90;;;;;;5038158;28;20890;-75
2022/08/21 10:38:18;;;;;;;16.75;7.65;;;33.30;99.90;;;;;;5045690;28;20230;-75
2022/08/21 10:41:16;;;;;;;12.40;7.50;;;33.50;99.90;;;;;;5043377;28;22293;-76
2022/08/21 10:44:08;;;;;;;11.00;7.28;;;33.50;99.90;;;;;;5004188;28;20242;-75
2022/08/21 10:46:58;;;;;;;12.43;7.22;;;33.50;99.90;;;;;;5029235;28;20211;-75
2022/08/21 10:49:40;;;;;;;11.02;7.05;;;33.50;99.90;;;;;;5036250;28;20213;-75
2022/08/21 10:52:46;;;;;;;16.02;7.63;;;33.50;99.90;;;;;;5051547;28;20186;-75
2022/08/21 10:55:26;;;;;;;13.07;7.97;;;33.50;99.90;;;;;;5021572;28;20195;-75
2022/08/21 10:58:10;;;;;;;14.38;7.25;;;33.40;99.90;;;;;;5052071;28;20221;-76
2022/08/21 11:00:51;;;;;;;12.27;6.80;;;33.30;99.90;;;;;;5051880;28;20191;-75
2022/08/21 11:03:33;;;;;;;14.82;7.28;;;33.20;99.90;;;;;;5035481;28;20184;-76
2022/08/21 11:06:18;;;;;;;10.00;7.45;;;33.20;99.90;;;;;;5050954;28;20181;-75
2022/08/21 11:08:52;;;;;;;15.27;7.80;;;33.10;99.90;;;;;;5049660;28;20539;-75
2022/08/21 11:11:34;;;;;;;16.50;7.93;;;33.20;99.90;;;;;;5051813;28;20181;-75
2022/08/21 11:14:36;;;;;;;12.38;7.30;;;33.30;99.90;;;;;;5047767;28;20195;-75
2022/08/21 11:17:15;;;;;;;14.45;7.45;;;33.20;99.90;;;;;;5033272;28;20234;-75
2022/08/21 11:20:04;;;;;;;15.88;6.90;;;33.20;99.90;;;;;;5031850;28;20199;-75
2022/08/21 11:22:41;;;;;;;9.30;5.95;;;33.20;99.90;;;;;;5030619;28;20195;-75
2022/08/21 11:25:29;;;;;;;9.95;6.10;;;33.20;99.90;;;;;;5011309;28;20690;-76
2022/08/21 11:28:17;;;;;;;7.93;5.82;;;33.10;99.90;;;;;;5044876;28;20212;-75
2022/08/21 11:31:15;;;;;;;18.08;6.63;;;33.10;99.90;;;;;;5018604;28;20236;-76
2022/08/21 11:33:56;;;;;;;9.07;5.53;;;33.20;99.90;;;;;;5055842;28;20595;-75
2022/08/21 11:36:46;;;;;;;10.18;5.35;;;33.10;99.90;;;;;;5050972;28;21138;-76
2022/08/21 11:40:18;;;;;;;8.07;5.10;;;33.30;99.90;;;;;;5041800;28;20657;-76
2022/08/21 11:43:11;;;;;;;11.15;5.53;;;33.20;99.90;;;;;;4965035;28;20224;-76
2022/08/21 11:45:51;;;;;;;12.48;5.50;;;33.40;99.90;;;;;;4953538;28;20198;-76
2022/08/21 11:48:59;;;;;;;7.50;4.60;;;33.50;99.90;;;;;;5044961;28;20199;-76
2022/08/21 11:51:57;;;;;;;7.15;4.53;;;33.30;99.40;;;;;;5047425;28;20266;-76
2022/08/21 11:55:08;;;;;;;9.80;5.00;;;33.20;99.30;;;;;;5052021;28;20176;-76
2022/08/21 11:58:00;;;;;;;8.48;5.03;;;33.20;99.50;;;;;;5012221;28;20221;-76
2022/08/21 12:00:39;;;;;;;10.70;5.32;;;33.20;99.60;;;;;;5046608;28;20192;-76
2022/08/21 12:03:17;;;;;;;11.65;5.10;;;33.30;99.50;;;;;;5013918;28;20207;-76
2022/08/21 12:06:13;;;;;;;6.25;4.13;;;33.30;99.10;;;;;;5030252;28;20194;-77
2022/08/21 12:08:46;;;;;;;8.77;4.90;;;33.10;98.30;;;;;;5031171;28;20649;-76
2022/08/21 12:11:19;;;;;;;10.20;5.05;;;33.00;98.50;;;;;;5030785;28;20219;-76
2022/08/21 12:14:00;;;;;;;8.88;4.82;;;33.00;97.80;;;;;;5033755;28;20209;-75
2022/08/21 12:16:43;;;;;;;7.38;4.80;;;33.00;97.70;;;;;;5038028;28;20270;-75
2022/08/21 12:19:31;;;;;;;6.88;4.47;;;33.00;97.30;;;;;;5032215;28;20170;-76
2022/08/21 12:22:14;;;;;;;15.68;4.00;;;33.10;97.30;;;;;;5031487;28;20211;-76
2022/08/21 12:24:45;;;;;;;6.72;4.40;;;33.10;97.20;;;;;;5033204;28;20190;-76
2022/08/21 12:27:28;;;;;;;8.90;4.30;;;33.10;97.50;;;;;;5030252;28;20216;-76
2022/08/21 12:30:09;;;;;;;6.57;4.35;;;32.90;97.30;;;;;;5031823;28;20207;-75
2022/08/21 12:32:41;;;;;;;8.93;5.10;;;33.00;97.30;;;;;;5030178;28;20724;-76
2022/08/21 12:35:30;;;;;;;5.85;4.50;;;33.10;98.10;;;;;;5026579;28;20194;-75
2022/08/21 12:38:12;;;;;;;7.82;4.80;;;33.10;97.80;;;;;;5051533;28;20176;-76
2022/08/21 12:41:18;;;;;;;7.68;4.90;;;33.20;97.90;;;;;;5050469;28;20237;-76
2022/08/21 12:44:12;;;;;;;7.25;4.80;;;33.30;97.60;;;;;;5049612;28;20225;-76
2022/08/21 12:46:58;;;;;;;14.10;5.07;;;33.50;97.50;;;;;;5045450;28;20207;-76
2022/08/21 12:50:09;;;;;;;13.82;4.85;;;33.50;97.60;;;;;;5050563;28;20187;-76
2022/08/21 12:52:49;;;;;;;13.48;5.28;;;33.30;97.70;;;;;;5050529;28;20298;-75
2022/08/21 12:55:29;;;;;;;7.20;4.55;;;33.10;97.00;;;;;;5049638;28;20668;-75
2022/08/21 12:57:56;;;;;;;8.40;4.57;;;33.00;97.70;;;;;;5049686;28;20199;-76
2022/08/21 13:00:28;;;;;;;7.22;4.50;;;33.20;97.40;;;;;;5047152;28;20192;-76
2022/08/21 13:02:57;;;;;;;10.63;4.65;;;33.30;98.20;;;;;;5030225;28;20195;-76
2022/08/21 13:05:35;;;;;;;8.85;5.05;;;33.20;98.20;;;;;;5031017;28;20195;-75
2022/08/21 13:08:10;;;;;;;9.38;4.93;;;33.30;98.40;;;;;;5035032;28;20675;-76
2022/08/21 13:10:39;;;;;;;7.03;5.30;;;33.60;98.20;;;;;;5032801;28;20224;-76
2022/08/21 13:13:13;;;;;;;7.65;4.88;;;33.40;98.30;;;;;;5051090;28;20179;-75
2022/08/21 13:15:42;;;;;;;11.48;4.97;;;33.40;97.90;;;;;;5044483;28;20203;-76
2022/08/21 13:18:18;;;;;;;8.52;4.45;;;33.30;98.10;;;;;;5030673;28;20232;-76
2022/08/21 13:20:46;;;;;;;7.20;4.70;;;33.40;98.00;;;;;;5022986;28;20203;-76
2022/08/21 13:23:29;;;;;;;10.30;4.75;;;33.40;98.00;;;;;;5018026;28;20244;-76